フナフティ島 の空港の天気 - METARとTAF

フナフティ国際空港 ( NGFU / FUN ) - ツバル フナフティ島
飛行場実況気象(Metar)
観測時間01/19 13:00 TVT (01/19 01:00 UTC)
風向・風速北北東 5m/s
視程10km以上
天気現象
少しの雲 雲底高度 610m
気温32℃
湿度67%
気圧1008hPa
METARNGFU 190100Z 02009KT 9999 FEW020 32/25 Q1008
過去の天気等 Google飛行場航空写真 Wunderground天気予報

過去48時間のMETAR

飛行場予報(TAF)
発表時間: 1/19 11:27 TVT (1/18 23:27 UTC)
予報対象時間: 19日12時 TVT ~ 20日12時 TVT
風向・風速北東 5m/s
視程10km以上
少しの雲 雲底高度 550m
全天の4割程度の雲 雲底高度 1370m
20日2時 TVT ~ 20日8時 TVT に 確率 40% で一時的に
視程5000m
天気現象雷雨
全天の8割程度の雲 雲底高度 460m
少しの積乱雲 雲底高度 490m
TAF NGFU 182327Z 1900/1924 05010KT 9999 FEW018 SCT045
PROB40 TEMPO 1914/1920 5000 TSRA BKN015 FEW016CB